Search for airport 
image banner adimage banner adimage banner ad
image banner ad

PN69 - Altemose

Located in Malvern, United States

ICAO - PN69, IATA -

Data provided by Airmate  

General information

Coordinates: N40°5'33" W75°30'57"
Elevation is 345 feet MSL.
 
View others Airports in Pennsylvania

Operational data

Special qualification required
Current time UTC:
Current local time:
Weather at : KOQN - Brandywine ( 13 km )
METAR: KOQN 182335Z AUTO 22005KT 10SM CLR 23/08 A3027 RMK AO2
View NOTAMs / SUP AIP / TFR affecting this airport [VIEW]
Communications frequencies: [VIEW]

Runways:

RWY identifierQFULength (ft)Width (ft)SurfaceLDA (ft)
16500100GRASS
34500100GRASS

Airport contact information

Address: Malvern United States

Satellite view of PN69